Kaprifol — 5BXX2 — position and weather

sailwx.info

Track history (hours):
 
Tides and Currents Weather Stations Pressure Air Temp Water Temp Dewpoint Dewpoint Depression Visibility Wind Speed Wind Dir Waves Ship Positions

Kaprifol

Last reported at 2016-Feb-14 12:33 UTC. Time now 2016-Feb-14 12:45 UTC.
Position N 57°53' E 006°16'.

Length 90 m; draft 4.8 m.

Type: Tanker. MMSI: 210445000.

Date/timePositionNaut miles runAvg speedWind from/ knotsBaromVisibWave heightAir tempDewpointWater temp
2016-Feb-14 12:33N 57°53' E 006°16'10 9.9
2016-Feb-14 11:33N 57°59' E 006°01'76 5.1
2016-Feb-13 20:33N 59°12' E 005°21'7 7.1
2016-Feb-13 19:33N 59°07' E 005°13'470 9.5
2016-Feb-11 18:04N 66°17' E 012°07'5 9.9
2016-Feb-11 17:33N 66°17' E 012°19'9 0.4
2016-Feb-10 15:31N 66°13' E 012°41'7 7.4
2016-Feb-10 14:33N 66°15' E 012°24'9 9.2
2016-Feb-10 13:33N 66°17' E 012°02'  
2016-Feb-07 07:31N 54°30' E 000°46'1111.8
2016-Feb-07 06:33N 54°19' E 000°42'1111.4
2016-Feb-07 05:33N 54°08' E 000°38'1111.0
2016-Feb-07 04:33N 53°57' E 000°34'1210.3
2016-Feb-07 03:24N 53°46' E 000°28'8 9.5
2016-Feb-07 02:32N 53°38' E 000°22'8 8.5
2016-Feb-07 01:33N 53°32' E 000°13'9 8.7
2016-Feb-07 00:33N 53°35' W 000°01'7 6.4
2016-Feb-06 23:32N 53°38' W 000°11'0 0.0
2016-Feb-06 22:32N 53°38' W 000°11'0 0.0
2016-Feb-06 21:32N 53°38' W 000°11'0 0.0
2016-Feb-06 20:32N 53°38' W 000°11'0 0.0
2016-Feb-06 19:32N 53°38' W 000°11'0 0.0
2016-Feb-06 18:32N 53°38' W 000°11'0 0.0
2016-Feb-06 17:32N 53°38' W 000°11'0 0.0
2016-Feb-06 16:32N 53°38' W 000°11'0 0.0
2016-Feb-06 15:32N 53°38' W 000°11'0 0.0
2016-Feb-06 14:32N 53°38' W 000°11'0 0.0
2016-Feb-06 13:32N 53°38' W 000°11'0 0.0
2016-Feb-06 12:32N 53°38' W 000°11'0 0.0
2016-Feb-06 11:32N 53°38' W 000°11'0 0.0
2016-Feb-06 10:32N 53°38' W 000°11'0 0.0
2016-Feb-06 09:32N 53°38' W 000°11'0 0.0
2016-Feb-06 08:32N 53°38' W 000°11'0 0.0
2016-Feb-06 07:32N 53°38' W 000°11'0 0.0
2016-Feb-06 06:32N 53°38' W 000°11'0 0.0
2016-Feb-06 05:32N 53°38' W 000°11'0 0.0
2016-Feb-06 04:32N 53°38' W 000°11'0 0.0
2016-Feb-06 03:32N 53°38' W 000°11'0 0.0
2016-Feb-06 02:32N 53°38' W 000°11'0 0.0
2016-Feb-06 01:32N 53°38' W 000°11'0 0.4
2016-Feb-06 00:33N 53°38' W 000°11'1010.4
2016-Feb-05 23:33N 53°34' E 000°05'7 7.0
2016-Feb-05 22:33N 53°35' E 000°17'6 6.0
2016-Feb-05 21:33N 53°40' E 000°23'6 6.0
2016-Feb-05 20:33N 53°44' E 000°31'  
Track history (hours):
 
Tides and Currents Weather Stations Pressure Air Temp Water Temp Dewpoint Dewpoint Depression Visibility Wind Speed Wind Dir Waves Ship Positions

Kaprifol

Last reported at 2016-Feb-14 12:33 UTC. Time now 2016-Feb-14 12:45 UTC.
Position N 57°53' E 006°16'.

Length 90 m; draft 4.8 m.

Type: Tanker. MMSI: 210445000.

Date/timePositionNaut miles runAvg speedWind from/ knotsBaromVisibWave heightAir tempDewpointWater temp
2016-Feb-14 12:33N 57°53' E 006°16'10 9.9
2016-Feb-14 11:33N 57°59' E 006°01'76 5.1
2016-Feb-13 20:33N 59°12' E 005°21'7 7.1
2016-Feb-13 19:33N 59°07' E 005°13'470 9.5
2016-Feb-11 18:04N 66°17' E 012°07'5 9.9
2016-Feb-11 17:33N 66°17' E 012°19'9 0.4
2016-Feb-10 15:31N 66°13' E 012°41'7 7.4
2016-Feb-10 14:33N 66°15' E 012°24'9 9.2
2016-Feb-10 13:33N 66°17' E 012°02'  
2016-Feb-07 07:31N 54°30' E 000°46'1111.8
2016-Feb-07 06:33N 54°19' E 000°42'1111.4
2016-Feb-07 05:33N 54°08' E 000°38'1111.0
2016-Feb-07 04:33N 53°57' E 000°34'1210.3
2016-Feb-07 03:24N 53°46' E 000°28'8 9.5
2016-Feb-07 02:32N 53°38' E 000°22'8 8.5
2016-Feb-07 01:33N 53°32' E 000°13'9 8.7
2016-Feb-07 00:33N 53°35' W 000°01'7 6.4
2016-Feb-06 23:32N 53°38' W 000°11'0 0.0
2016-Feb-06 22:32N 53°38' W 000°11'0 0.0
2016-Feb-06 21:32N 53°38' W 000°11'0 0.0
2016-Feb-06 20:32N 53°38' W 000°11'0 0.0
2016-Feb-06 19:32N 53°38' W 000°11'0 0.0
2016-Feb-06 18:32N 53°38' W 000°11'0 0.0
2016-Feb-06 17:32N 53°38' W 000°11'0 0.0
2016-Feb-06 16:32N 53°38' W 000°11'0 0.0
2016-Feb-06 15:32N 53°38' W 000°11'0 0.0
2016-Feb-06 14:32N 53°38' W 000°11'0 0.0
2016-Feb-06 13:32N 53°38' W 000°11'0 0.0
2016-Feb-06 12:32N 53°38' W 000°11'0 0.0
2016-Feb-06 11:32N 53°38' W 000°11'0 0.0
2016-Feb-06 10:32N 53°38' W 000°11'0 0.0
2016-Feb-06 09:32N 53°38' W 000°11'0 0.0
2016-Feb-06 08:32N 53°38' W 000°11'0 0.0
2016-Feb-06 07:32N 53°38' W 000°11'0 0.0
2016-Feb-06 06:32N 53°38' W 000°11'0 0.0
2016-Feb-06 05:32N 53°38' W 000°11'0 0.0
2016-Feb-06 04:32N 53°38' W 000°11'0 0.0
2016-Feb-06 03:32N 53°38' W 000°11'0 0.0
2016-Feb-06 02:32N 53°38' W 000°11'0 0.0
2016-Feb-06 01:32N 53°38' W 000°11'0 0.4
2016-Feb-06 00:33N 53°38' W 000°11'1010.4
2016-Feb-05 23:33N 53°34' E 000°05'7 7.0
2016-Feb-05 22:33N 53°35' E 000°17'6 6.0
2016-Feb-05 21:33N 53°40' E 000°23'6 6.0
2016-Feb-05 20:33N 53°44' E 000°31'  

Dump ship's entire track history